x

Grays Reef - 40 Nm Southeast Of Savannah, Ga (41008) Wave Buoy

12:50am - Sat 4th Jul 2015 All times are EDT. -4 hours from GMT.

  • Sig Wave height 3.0ft
  • Swell Direction
  • Peak Period 9s
  • Average Period 4s
  • Wind
    20mph, 25mph gusts
  • Sea Temp 79°f
  • Air Temp 80°f
  • Sea Pressure 1017.5mb
  • Grays Reef - 40 Nm Southeast Of Savannah, Ga
  • Grays Reef - 40 Nm Southeast Of Savannah, Ga

More Historic Weather Station data

Upgrade to MSW Pro to gain access to the past 30 days of data for over 8000 Wavebouys and Weather Stations around the globe.

Join Pro

Comparision Forecast

View Surf forecast
   
Sat 07/04 12:50am 3ft 9s 4s 20 25 mph 1017.5mb 79f 80f
Fri 07/03 11:50pm 2.5ft 9s 4s 18 22 mph 1017.8mb 79f 80f
10:50pm 2.5ft 9s 4s 16 20 mph 1017.7mb 78f 80f
9:50pm 2.5ft 9s 4s 16 18 mph 1017mb 79f 80f
8:50pm 2.5ft 9s 4s 16 18 mph 1016.5mb 79f 80f
7:50pm 2.5ft 9s 4s 16 18 mph 1016.4mb 79f 80f
6:50pm 2.5ft 9s 4s 18 20 mph 1016.1mb 80f 80f
5:50pm 2.5ft 9s 4s 13 16 mph 1016.7mb 80f 81f
4:50pm 2.5ft 8s 4s 16 18 mph 1016.7mb 80f 80f
3:50pm 2.5ft 9s 4s 13 16 mph 1016.9mb 80f 80f
2:50pm 2.5ft 9s 4s 11 13 mph 1017.4mb 80f 80f
1:50pm 2.5ft 8s 4s 13 16 mph 1017.8mb 79f 79f
12:50pm 2.5ft 10s 4s 13 16 mph 1018.1mb 79f 79f
11:50am 2.5ft 8s 4s 13 16 mph 1018.4mb 79f 79f
10:50am 2.5ft 4s 4s 13
mph
1018.1mb 79f 78f
9:50am 2.5ft 8s 4s 16 18 mph 1018mb 78f 78f
8:50am 2.5ft 8s 4s 16 20 mph 1018.3mb 78f 77f
7:50am 2.5ft 8s 4s 16 18 mph 1017.9mb 78f 78f
6:50am 2.5ft 8s 4s 16 18 mph 1017.6mb 79f 78f
5:50am 2.5ft 8s 4s 16 20 mph 1017mb 79f 78f
4:50am 2.5ft 8s 4s 18 20 mph 1017.1mb 79f 78f
3:50am 2.5ft 8s 4s 16 18 mph 1016.8mb 79f 78f
2:50am 2.5ft 5s 4s 16 18 mph 1016.9mb 79f 77f
1:50am 2ft 5s 4s 18 20 mph 1017.5mb 79f 77f
12:50am 2.5ft 4s 4s 16 18 mph 1018.1mb 79f 77f
Thu 07/02 11:50pm 2.5ft 4s 4s 9 11 mph 1018.1mb 79f 77f
10:50pm 3.5ft 5s 4s 11 13 mph 1017.4mb 79f 77f
9:50pm 4ft 4s 4s 16 18 mph 1016.9mb 79f 78f
8:50pm 4.5ft 5s 4s 20 25 mph 1016.1mb 79f 76f
7:50pm 4.5ft 5s 4s 31 40 mph 1016.4mb 79f 76f
6:50pm 3.5ft 4s 4s 34 45 mph 1015.4mb 79f 80f
5:50pm 3ft 4s 4s 22 27 mph 1015mb 79f 80f
4:50pm 2.5ft 4s 4s 22 27 mph 1015.4mb 80f 81f
3:50pm 2.5ft 9s 4s 18 20 mph 1016mb 80f 80f
2:50pm 2ft 8s 4s 13 16 mph 1016.6mb 80f 80f
1:50pm 2ft 9s 4s 13 16 mph 1017.5mb 80f 80f
12:50pm 2ft 8s 4s 13 16 mph 1018.2mb 80f 79f
11:50am 2.5ft 5s 4s 11 13 mph 1018.2mb 79f 79f
10:50am 2.5ft 5s 4s 13
mph
1018mb 79f 78f
9:50am 2.5ft 8s 4s 9 11 mph 1018.1mb 79f 79f
8:50am 2.5ft 8s 4s 13
mph
1017.8mb 79f 79f
7:50am 2.5ft 8s 4s 13 16 mph 1017.5mb 79f 78f
6:50am 2.5ft 8s 4s 11 13 mph 1017mb 79f 78f
5:50am 2.5ft 8s 4s 11 13 mph 1016.8mb 79f 78f
4:50am 2.5ft 8s 4s 13 16 mph 1016.9mb 79f 79f
3:50am 2.5ft 8s 4s 11 13 mph 1016.9mb 79f 79f
2:50am 2ft 8s 4s 16 18 mph 1017.6mb 79f 80f
1:50am 1.6ft 8s 4s 13 16 mph 1017.8mb 79f 81f
12:50am 1.6ft 5s 4s 11 13 mph 1018.2mb 79f 81f
Wed 07/01 11:50pm 2ft 9s 4s 13
mph
1018.2mb 79f 82f
10:50pm 2ft 8s 4s 9 11 mph 1018.1mb 79f 81f
9:50pm 2ft 9s 4s 11
mph
1017.3mb 79f 80f
8:50pm 2.5ft 9s 4s 11
mph
1016.8mb 79f 80f
7:50pm 2.5ft 9s 4s 9 11 mph 1016.3mb 79f 80f
6:50pm 2.5ft 3s 4s 13 16 mph 1016.1mb 79f 81f
5:50pm 2.5ft 9s 4s 13 18 mph 1016.1mb 79f 82f
4:50pm 2.5ft 8s 4s 13 16 mph 1016.1mb 79f 82f
3:50pm 2.5ft 7s 4s 13 16 mph 1017mb 80f 81f
2:50pm 2.5ft 8s 4s 11 13 mph 1017.7mb 80f 81f
1:50pm 3ft 4s 4s 11 13 mph 1018mb 79f 81f
12:50pm 3ft 9s 4s 13 18 mph 1018.4mb 79f 80f
11:50am 3ft 9s 4s 18 22 mph 1018.6mb 79f 79f
10:50am 3ft 4s 4s 20 22 mph 1018.9mb 79f 78f
9:50am 2.5ft 4s 4s 18 22 mph 1018.8mb 79f 77f
8:50am 3ft 4s 4s 16 20 mph 1018.7mb 79f 76f
7:50am 3ft 4s 4s 18 20 mph 1018.5mb 79f 75f
6:50am 3ft 4s 4s 16 18 mph 1018mb 79f 76f
5:50am 3.5ft 4s 4s 16 20 mph 1017.6mb 79f 76f
4:50am 2.5ft 4s 4s 18 22 mph 1017.4mb 79f 77f
3:50am 2.5ft 4s 4s 18 20 mph 1017.2mb 79f 77f
2:50am 2.5ft 4s 4s 18 20 mph 1017.3mb 79f 77f
1:50am 2ft 3s 3s 16 20 mph 1017.1mb 80f 79f
12:50am 2ft 9s 4s 18 20 mph 1017.3mb 80f 79f
Tue 06/30 11:50pm 2ft 9s 4s 11 13 mph 1016.7mb 79f 78f
10:50pm 2.5ft 9s 4s 13 16 mph 1016.8mb 79f 78f
9:50pm 2.5ft 4s 4s 16 20 mph 1017.3mb 79f 79f
8:50pm 2.5ft 4s 4s 11 13 mph 1015.8mb 79f 78f
7:50pm 3ft 4s 4s 13 18 mph 1015.9mb 79f 78f
6:50pm 3ft 4s 4s 16 18 mph 1016mb 79f 77f
5:50pm 2.5ft 3s 4s 22 29 mph 1016.3mb 80f 79f
4:50pm 2.5ft 5s 4s 18 20 mph 1016mb 80f 80f
3:50pm 2ft 8s 4s 20 25 mph 1016.6mb 81f 80f
2:50pm 2.5ft 8s 4s 13 16 mph 1016.4mb 81f 79f
1:50pm 2ft 8s 4s 11 13 mph 1016.9mb 81f 79f
12:50pm 1.6ft 9s 4s 11 13 mph 1017.7mb 81f 79f
11:50am 2ft 9s 4s 11 13 mph 1018.3mb 80f 78f
10:50am 2ft 8s 4s 11 13 mph 1018.2mb 80f 78f
9:50am 2ft 8s 4s 9 11 mph 1018mb 79f 78f
8:50am 2.5ft 8s 4s 9 11 mph 1018mb 79f 78f
7:50am 2.5ft 8s 4s 11 13 mph 1017.3mb 79f 78f
6:50am 2.5ft 7s 4s 11
mph
1017.4mb 79f 78f
5:50am 2.5ft 8s 4s 11 13 mph 1016.3mb 79f 80f